Time;durP1;ratioP1;P1;durP2;ratioP2;P2;SDS_P1;SDS_P2;PMS_P1;PMS_P2;Temp;Humidity;BMP_temperature;BMP_pressure;BME280_temperature;BME280_humidity;BME280_pressure;Samples;Min_cycle;Max_cycle;Signal;HPM_P1;HPM_P2
2023/06/29 07:54:30;;;;;;;;;32.00;29.25;;;;;25.06;49.50;101233.59;4531081;23;46384;-88
2023/06/29 07:56:56;;;;;;;;;29.25;27.75;;;;;25.05;49.65;101223.94;4856579;29;46716;-88
2023/06/29 07:59:22;;;;;;;;;35.00;31.25;;;;;25.07;49.44;101225.47;4843551;29;45391;-87
2023/06/29 08:01:50;;;;;;;;;32.75;30.00;;;;;25.08;49.29;101231.63;4838801;29;45441;-87
2023/06/29 08:04:16;;;;;;;;;34.50;31.00;;;;;25.02;48.93;101218.88;4838742;29;45451;-88
2023/06/29 08:06:43;;;;;;;;;30.75;29.75;;;;;25.02;49.66;101219.72;4842072;29;45551;-87
2023/06/29 08:09:11;;;;;;;;;32.75;29.25;;;;;25.04;49.45;101223.06;4842487;29;48173;-87
2023/06/29 08:11:36;;;;;;;;;27.75;25.25;;;;;25.03;49.18;101220.53;4857017;29;45630;-87
2023/06/29 08:14:02;;;;;;;;;32.00;28.25;;;;;25.09;49.42;101217.34;4840032;29;45562;-87
2023/06/29 08:16:27;;;;;;;;;32.00;29.75;;;;;24.99;49.11;101193.38;4845376;29;45679;-88
2023/06/29 08:18:52;;;;;;;;;30.75;29.75;;;;;25.16;48.93;101210.47;4844342;29;45594;-87
2023/06/29 08:21:18;;;;;;;;;31.75;29.00;;;;;25.19;48.95;101204.03;4828240;29;45287;-87
2023/06/29 08:23:43;;;;;;;;;36.25;30.75;;;;;25.21;48.87;101204.72;4832454;29;45366;-87
2023/06/29 08:26:08;;;;;;;;;31.50;29.75;;;;;25.25;49.45;101206.13;4845240;29;45445;-87
2023/06/29 08:28:34;;;;;;;;;33.00;30.50;;;;;25.18;48.82;101189.88;4842586;29;47899;-87
2023/06/29 08:30:59;;;;;;;;;31.75;30.50;;;;;25.28;48.89;101203.22;4843958;29;45273;-87
2023/06/29 08:33:24;;;;;;;;;32.75;30.00;;;;;25.34;49.31;101207.97;4844789;29;45396;-87
2023/06/29 08:35:51;;;;;;;;;33.25;27.50;;;;;25.35;48.92;101204.31;4844814;29;45388;-87
2023/06/29 08:38:16;;;;;;;;;31.75;28.50;;;;;25.41;48.96;101207.41;4843522;29;46610;-87
2023/06/29 08:40:45;;;;;;;;;35.75;29.75;;;;;25.47;48.94;101212.16;4842536;29;45463;-88
2023/06/29 08:43:11;;;;;;;;;35.00;31.00;;;;;25.49;48.55;101212.84;4842493;29;45285;-87
2023/06/29 08:45:37;;;;;;;;;34.25;29.75;;;;;25.59;48.98;101216.38;4841535;29;45662;-87
2023/06/29 08:48:03;;;;;;;;;26.75;25.75;;;;;25.69;48.90;101210.19;4827692;29;48147;-88
2023/06/29 08:50:33;;;;;;;;;29.75;27.00;;;;;25.80;48.91;101211.84;4842703;29;45389;-88
2023/06/29 08:52:59;;;;;;;;;31.50;29.75;;;;;25.85;48.08;101201.56;4842076;29;45342;-88
2023/06/29 08:55:25;;;;;;;;;39.50;30.75;;;;;25.93;48.38;101214.19;4844503;29;45663;-88
2023/06/29 08:57:53;;;;;;;;;34.75;30.50;;;;;25.92;47.95;101208.00;4841361;29;46903;-88
2023/06/29 09:00:20;;;;;;;;;33.00;30.25;;;;;25.91;48.52;101192.19;4844306;29;45467;-88
2023/06/29 09:02:45;;;;;;;;;31.50;29.50;;;;;25.95;48.66;101183.72;4843524;29;45364;-87
2023/06/29 09:05:16;;;;;;;;;31.75;28.25;;;;;26.20;47.95;101205.38;4843610;29;45381;-88
2023/06/29 09:07:42;;;;;;;;;29.50;28.75;;;;;26.29;47.75;101203.72;4841301;29;46357;-88
2023/06/29 09:10:11;;;;;;;;;30.25;27.75;;;;;26.38;47.60;101201.97;4841706;29;45354;-89
2023/06/29 09:12:37;;;;;;;;;33.75;28.00;;;;;26.40;46.92;101200.00;4839758;29;45502;-87
2023/06/29 09:15:13;;;;;;;;;31.75;28.00;;;;;26.52;46.91;101200.63;4840136;29;45578;-87
2023/06/29 09:17:44;;;;;;;;;31.00;28.75;;;;;26.55;46.55;101197.66;4842145;29;47871;-88
2023/06/29 09:20:15;;;;;;;;;28.25;25.75;;;;;26.63;46.40;101199.56;4841774;29;45587;-89
2023/06/29 09:22:41;;;;;;;;;31.00;28.75;;;;;26.66;46.44;101197.44;4843760;29;45412;-88
2023/06/29 09:25:09;;;;;;;;;30.00;27.75;;;;;26.71;46.15;101190.81;4831619;29;45301;-87
2023/06/29 09:27:35;;;;;;;;;35.00;30.75;;;;;26.74;46.27;101198.53;4842057;29;45591;-87
2023/06/29 09:30:03;;;;;;;;;34.00;29.75;;;;;26.72;45.66;101187.16;4835122;29;45415;-88
2023/06/29 09:32:29;;;;;;;;;31.50;29.25;;;;;26.74;46.05;101187.88;4834525;29;45345;-88
2023/06/29 09:34:54;;;;;;;;;30.50;27.50;;;;;26.76;45.36;101189.34;4839340;29;45696;-88
2023/06/29 09:37:20;;;;;;;;;33.00;29.00;;;;;26.73;45.96;101189.69;4840059;29;46615;-88
2023/06/29 09:40:09;;;;;;;;;25.50;24.50;;;;;26.79;45.31;101196.22;4842491;29;45310;-88
2023/06/29 09:42:39;;;;;;;;;32.25;28.75;;;;;26.78;45.60;101194.56;4851308;29;45389;-88
2023/06/29 09:45:11;;;;;;;;;34.25;29.50;;;;;26.79;45.31;101173.06;4834448;29;45371;-89
2023/06/29 09:47:38;;;;;;;;;30.25;28.50;;;;;27.03;45.46;101197.50;4835528;29;45379;-87
2023/06/29 09:50:16;;;;;;;;;35.00;30.50;;;;;27.14;45.27;101191.94;4839748;29;45406;-87
2023/06/29 09:52:46;;;;;;;;;29.50;27.75;;;;;27.31;45.60;101194.75;4836242;29;45475;-87
2023/06/29 09:55:13;;;;;;;;;35.00;31.00;;;;;27.41;44.99;101197.31;4838193;29;45763;-88
2023/06/29 09:57:52;;;;;;;;;34.25;31.00;;;;;27.51;44.83;101199.88;4838043;29;47395;-88
2023/06/29 10:00:19;;;;;;;;;32.25;30.25;;;;;27.60;44.97;101196.31;4831541;29;46008;-87
2023/06/29 10:02:44;;;;;;;;;33.25;29.00;;;;;27.65;44.61;101195.81;4837094;29;45489;-87
2023/06/29 10:05:10;;;;;;;;;29.25;27.75;;;;;27.55;44.66;101174.53;4832766;29;45484;-88
2023/06/29 10:07:37;;;;;;;;;32.50;30.00;;;;;27.73;44.68;101202.06;4838200;29;46802;-88
2023/06/29 10:10:07;;;;;;;;;35.50;30.25;;;;;27.77;44.87;101194.56;4837908;29;45868;-88
2023/06/29 10:12:33;;;;;;;;;32.50;30.00;;;;;27.69;44.42;101195.38;4836863;29;45672;-87
2023/06/29 10:15:08;;;;;;;;;34.00;30.00;;;;;27.68;44.42;101199.03;4839329;29;45462;-88
2023/06/29 10:17:53;;;;;;;;;30.75;28.75;;;;;27.73;44.78;101203.91;4838331;29;48187;-87
2023/06/29 10:20:21;;;;;;;;;31.75;29.75;;;;;27.76;44.61;101202.75;4823050;29;45260;-88
2023/06/29 10:22:48;;;;;;;;;34.50;31.25;;;;;27.81;44.62;101203.94;4832231;29;45426;-87
2023/06/29 10:25:18;;;;;;;;;33.00;31.00;;;;;27.83;44.65;101199.31;4840249;29;45540;-88
2023/06/29 10:27:44;;;;;;;;;35.75;32.00;;;;;27.88;43.99;101206.84;4827715;29;47432;-88
2023/06/29 10:30:10;;;;;;;;;35.50;31.50;;;;;27.84;44.46;101213.50;4837991;29;45421;-89
2023/06/29 10:32:38;;;;;;;;;42.50;33.75;;;;;27.77;44.51;101210.59;4841525;29;45444;-88
2023/06/29 10:35:12;;;;;;;;;39.50;34.50;;;;;27.69;44.02;101215.91;4840299;29;45937;-88
2023/06/29 10:37:42;;;;;;;;;39.50;31.25;;;;;27.65;44.34;101209.19;4841242;29;45720;-88
2023/06/29 10:40:10;;;;;;;;;35.00;31.50;;;;;27.62;44.40;101207.66;4839357;29;45370;-87
2023/06/29 10:42:38;;;;;;;;;41.25;33.75;;;;;27.62;44.66;101205.00;4841301;29;45446;-87
2023/06/29 10:45:24;;;;;;;;;34.25;31.25;;;;;27.59;44.36;101195.47;4841176;29;45568;-88
2023/06/29 10:47:55;;;;;;;;;38.50;34.25;;;;;27.60;44.13;101198.97;4826629;29;45526;-88
2023/06/29 10:50:36;;;;;;;;;37.25;31.00;;;;;27.51;44.38;101195.38;4850163;29;45664;-88
2023/06/29 10:53:07;;;;;;;;;40.75;33.50;;;;;27.55;43.92;101204.78;4832464;29;45504;-88
2023/06/29 10:55:50;;;;;;;;;42.50;33.25;;;;;27.48;43.83;101188.50;4839047;29;45617;-87
2023/06/29 10:58:20;;;;;;;;;37.00;32.00;;;;;27.50;44.84;101193.72;4837521;29;47047;-88
2023/06/29 11:00:47;;;;;;;;;43.25;34.00;;;;;27.51;44.17;101191.84;4839276;29;45667;-89
2023/06/29 11:03:14;;;;;;;;;37.75;30.75;;;;;27.48;43.94;101196.53;4839885;29;45346;-89
2023/06/29 11:05:40;;;;;;;;;43.00;37.25;;;;;27.40;44.07;101192.97;4840154;29;45375;-88
2023/06/29 11:08:09;;;;;;;;;36.75;32.50;;;;;27.43;43.84;101188.16;4840679;29;46549;-88
2023/06/29 11:10:35;;;;;;;;;36.75;30.75;;;;;27.31;44.52;101170.69;4840834;29;45563;-88
2023/06/29 11:13:07;;;;;;;;;40.00;34.50;;;;;27.39;44.24;101192.13;4843224;29;45538;-88
2023/06/29 11:15:33;;;;;;;;;39.50;33.25;;;;;27.34;44.36;101183.72;4838470;29;45566;-87
2023/06/29 11:18:02;;;;;;;;;36.00;31.75;;;;;27.36;44.44;101181.75;4862276;29;46165;-87
2023/06/29 11:20:29;;;;;;;;;33.75;31.25;;;;;27.39;44.53;101180.59;4840938;29;45416;-88
2023/06/29 11:22:57;;;;;;;;;40.25;34.00;;;;;27.42;44.17;101166.91;4842800;29;45532;-88
2023/06/29 11:25:22;;;;;;;;;34.25;31.25;;;;;27.47;44.00;101176.16;4841279;29;45545;-88
2023/06/29 11:27:48;;;;;;;;;37.25;30.75;;;;;27.56;43.61;101181.53;4840422;29;48208;-87
2023/06/29 11:30:13;;;;;;;;;35.00;31.25;;;;;27.59;43.92;101178.59;4837073;29;45549;-89
2023/06/29 11:32:40;;;;;;;;;42.00;35.00;;;;;27.68;43.79;101179.50;4839893;29;45791;-87
2023/06/29 11:35:12;;;;;;;;;34.25;28.50;;;;;27.70;43.73;101172.13;4840582;29;45526;-88
2023/06/29 11:37:39;;;;;;;;;40.00;34.00;;;;;27.78;43.39;101174.03;4841959;29;46595;-88
2023/06/29 11:40:14;;;;;;;;;39.75;32.75;;;;;27.81;42.95;101171.88;4841341;29;45511;-88
2023/06/29 11:42:41;;;;;;;;;33.00;30.25;;;;;27.88;42.90;101167.59;4838785;29;45591;-89
2023/06/29 11:45:07;;;;;;;;;43.50;37.00;;;;;27.99;43.18;101163.78;4840265;29;45306;-88
2023/06/29 11:47:32;;;;;;;;;38.25;32.25;;;;;28.13;42.98;101156.13;4842150;29;47007;-88
2023/06/29 11:50:02;;;;;;;;;35.25;32.00;;;;;28.37;42.67;101163.44;4843108;29;45436;-90
2023/06/29 11:52:32;;;;;;;;;39.25;31.75;;;;;28.56;42.34;101164.16;4842165;29;45359;-88
2023/06/29 11:55:06;;;;;;;;;42.25;35.50;;;;;28.75;42.08;101151.47;4841251;29;45571;-89
2023/06/29 11:57:36;;;;;;;;;38.50;33.25;;;;;28.96;41.61;101150.19;4838585;29;47551;-89
2023/06/29 12:00:06;;;;;;;;;43.25;35.25;;;;;29.05;41.23;101150.00;4840093;29;45556;-88
2023/06/29 12:02:33;;;;;;;;;37.50;33.00;;;;;29.13;40.53;101148.31;4842262;29;45260;-88
2023/06/29 12:05:03;;;;;;;;;41.00;34.50;;;;;29.17;40.13;101145.16;4840232;29;45528;-87
2023/06/29 12:07:39;;;;;;;;;39.50;34.25;;;;;29.13;39.97;101156.34;4840631;29;47358;-87
2023/06/29 12:10:11;;;;;;;;;35.25;31.75;;;;;29.03;39.89;101151.19;4842149;29;45578;-88
2023/06/29 12:12:41;;;;;;;;;43.75;37.75;;;;;28.93;40.06;101146.81;4841650;29;45345;-87
2023/06/29 12:15:17;;;;;;;;;45.25;36.25;;;;;28.84;40.27;101146.94;4842559;29;45605;-87
2023/06/29 12:17:44;;;;;;;;;42.25;36.75;;;;;28.72;39.77;101154.47;4840253;29;47048;-87
2023/06/29 12:20:39;;;;;;;;;41.75;36.00;;;;;28.54;39.86;101150.09;4840893;29;45446;-87
2023/06/29 12:23:05;;;;;;;;;48.25;40.00;;;;;28.38;40.17;101153.56;4853408;29;45513;-88
2023/06/29 12:25:30;;;;;;;;;39.50;34.00;;;;;28.23;40.14;101142.66;4833552;29;45723;-86
2023/06/29 12:27:56;;;;;;;;;45.75;38.75;;;;;28.11;39.98;101145.63;4855547;29;48122;-88
2023/06/29 12:30:21;;;;;;;;;42.50;36.50;;;;;27.93;40.49;101135.00;4837711;29;45738;-87
2023/06/29 12:32:51;;;;;;;;;43.00;36.00;;;;;27.88;40.40;101143.50;4842013;29;45519;-88
2023/06/29 12:35:18;;;;;;;;;49.25;38.25;;;;;27.80;41.00;101153.31;4839045;29;45775;-87
2023/06/29 12:37:44;;;;;;;;;46.50;39.25;;;;;27.76;41.00;101152.78;4835471;29;46793;-87
2023/06/29 12:40:10;;;;;;;;;42.00;34.50;;;;;27.64;41.19;101146.03;4840521;29;45581;-87
2023/06/29 12:42:37;;;;;;;;;44.00;35.25;;;;;27.66;41.39;101136.03;4840008;29;45387;-89
2023/06/29 12:45:04;;;;;;;;;46.25;38.00;;;;;27.78;41.53;101139.25;4840929;29;45590;-87
2023/06/29 12:47:30;;;;;;;;;50.25;39.00;;;;;27.98;41.45;101146.06;4840695;29;47332;-87
2023/06/29 12:49:56;;;;;;;;;45.50;38.00;;;;;28.21;41.47;101149.97;4841940;29;45668;-87
2023/06/29 12:52:22;;;;;;;;;45.75;38.00;;;;;28.41;41.07;101143.38;4838973;29;45579;-87
2023/06/29 12:54:48;;;;;;;;;44.75;38.00;;;;;28.59;40.87;101137.06;4839341;29;45622;-87
2023/06/29 12:57:13;;;;;;;;;46.75;37.25;;;;;28.83;40.47;101131.91;4840031;29;45533;-87
2023/06/29 12:59:39;;;;;;;;;8.50;3.50;;;;;28.95;40.23;101133.25;4841187;29;45494;-87
2023/06/29 13:02:06;;;;;;;;;42.75;34.25;;;;;29.11;40.06;101136.94;4840186;29;46728;-87
2023/06/29 13:04:34;;;;;;;;;46.25;38.00;;;;;29.24;39.62;101141.78;4831870;29;45422;-87
2023/06/29 13:06:59;;;;;;;;;37.50;32.50;;;;;29.40;39.60;101143.59;4854546;29;47441;-87
2023/06/29 13:09:25;;;;;;;;;38.75;32.50;;;;;29.40;38.79;101119.47;4837397;29;45382;-88
2023/06/29 13:11:50;;;;;;;;;38.25;33.00;;;;;29.58;38.35;101133.53;4837713;29;45818;-87
2023/06/29 13:14:16;;;;;;;;;30.25;27.50;;;;;29.65;38.07;101130.16;4841503;29;45572;-87
2023/06/29 13:16:41;;;;;;;;;35.25;31.75;;;;;29.68;37.51;101137.88;4838247;29;48212;-88
2023/06/29 13:19:06;;;;;;;;;33.00;30.75;;;;;29.62;37.26;101133.19;4840465;29;45552;-88
2023/06/29 13:21:32;;;;;;;;;30.00;28.75;;;;;29.55;36.76;101131.22;4838977;29;46836;-89
2023/06/29 13:23:57;;;;;;;;;38.00;33.00;;;;;29.57;37.35;101133.72;4841006;29;45590;-87
2023/06/29 13:26:23;;;;;;;;;36.50;32.25;;;;;29.51;37.57;101131.69;4842497;29;46662;-87
2023/06/29 13:28:48;;;;;;;;;39.00;34.25;;;;;29.50;37.75;101117.47;4841555;29;45680;-87
2023/06/29 13:31:13;;;;;;;;;37.50;33.50;;;;;29.50;37.10;101112.13;4841617;29;45527;-89
2023/06/29 13:33:38;;;;;;;;;35.75;32.25;;;;;29.54;37.03;101115.28;4840446;29;45530;-87
2023/06/29 13:36:04;;;;;;;;;35.25;31.75;;;;;29.53;37.02;101109.06;4837946;29;46710;-87
2023/06/29 13:38:30;;;;;;;;;37.00;33.50;;;;;29.57;36.72;101112.28;4838426;29;45332;-88
2023/06/29 13:40:55;;;;;;;;;39.00;32.75;;;;;29.44;37.07;101108.22;4840957;29;45570;-86
2023/06/29 13:43:20;;;;;;;;;40.75;33.75;;;;;29.53;37.51;101119.78;4838432;29;45474;-87
2023/06/29 13:45:45;;;;;;;;;39.75;34.50;;;;;29.51;37.65;101111.09;4835672;29;47941;-88
2023/06/29 13:48:11;;;;;;;;;40.00;33.25;;;;;29.55;37.69;101115.13;4838596;29;45546;-87
2023/06/29 13:50:36;;;;;;;;;39.75;34.75;;;;;29.63;38.03;101113.41;4840393;29;45456;-87
2023/06/29 13:53:02;;;;;;;;;34.25;31.50;;;;;29.72;37.21;101110.53;4857625;29;45369;-87
2023/06/29 13:55:28;;;;;;;;;36.50;31.50;;;;;29.80;37.24;101116.88;4839560;29;47041;-87
2023/06/29 13:57:53;;;;;;;;;40.50;32.50;;;;;29.83;36.71;101117.38;4835896;29;45495;-87
2023/06/29 14:00:21;;;;;;;;;42.25;33.50;;;;;29.77;36.71;101111.84;4831812;29;45378;-87
2023/06/29 14:02:46;;;;;;;;;35.75;30.25;;;;;29.75;36.60;101112.03;4857609;29;45241;-87
2023/06/29 14:05:12;;;;;;;;;39.25;33.25;;;;;29.58;36.67;101109.41;4837636;29;45885;-87
2023/06/29 14:07:37;;;;;;;;;35.25;31.50;;;;;29.49;36.62;101128.38;4838753;29;45453;-88
2023/06/29 14:10:03;;;;;;;;;28.00;26.75;;;;;29.25;36.69;101125.53;4833869;29;45547;-90
2023/06/29 14:12:28;;;;;;;;;30.75;27.00;;;;;29.06;37.20;101135.59;4838937;29;46067;-89
2023/06/29 14:14:54;;;;;;;;;24.75;22.00;;;;;28.82;37.69;101133.72;4837233;29;45298;-88
2023/06/29 14:17:20;;;;;;;;;22.50;20.75;;;;;28.51;37.65;101121.81;4848971;29;45422;-88
2023/06/29 14:19:46;;;;;;;;;24.75;22.50;;;;;28.44;38.21;101139.53;4842483;29;45402;-90
2023/06/29 14:22:11;;;;;;;;;29.00;23.00;;;;;28.25;38.00;101144.19;4841015;29;45417;-90
2023/06/29 14:24:37;;;;;;;;;22.50;21.25;;;;;28.07;38.48;101141.56;4842154;29;47162;-88
2023/06/29 14:27:03;;;;;;;;;21.00;20.50;;;;;27.93;38.24;101156.41;4840563;29;45365;-88
2023/06/29 14:29:28;;;;;;;;;20.25;18.25;;;;;27.72;38.58;101149.59;4839730;29;45550;-88
2023/06/29 14:31:54;;;;;;;;;24.50;20.25;;;;;27.56;38.73;101144.13;4857700;29;45347;-89
2023/06/29 14:34:19;;;;;;;;;19.75;18.00;;;;;27.48;38.67;101160.94;4843182;29;45486;-89
2023/06/29 14:36:44;;;;;;;;;22.50;22.25;;;;;27.27;38.49;101147.94;4840884;29;45314;-92
2023/06/29 14:39:10;;;;;;;;;16.75;16.25;;;;;27.17;38.07;101158.72;4841175;29;45321;-90
2023/06/29 14:41:35;;;;;;;;;19.25;18.50;;;;;27.07;38.35;101151.63;4840400;29;45561;-88
2023/06/29 14:44:03;;;;;;;;;16.00;15.50;;;;;26.91;38.44;101148.78;4841171;29;46876;-89
2023/06/29 14:46:29;;;;;;;;;19.00;16.75;;;;;26.88;38.39;101163.28;4842935;29;45427;-89
2023/06/29 14:48:54;;;;;;;;;21.25;18.25;;;;;26.69;38.38;101145.59;4841609;29;45318;-88
2023/06/29 14:51:19;;;;;;;;;19.25;15.75;;;;;26.72;38.73;101147.13;4843616;29;45586;-90
2023/06/29 14:53:45;;;;;;;;;20.50;17.50;;;;;26.70;38.50;101159.78;4842454;29;47585;-88
2023/06/29 14:56:10;;;;;;;;;22.00;18.75;;;;;26.66;38.61;101164.59;4842330;29;45531;-88
2023/06/29 14:58:36;;;;;;;;;20.25;17.75;;;;;26.62;38.89;101155.19;4838582;29;45427;-88
2023/06/29 15:01:01;;;;;;;;;17.50;16.00;;;;;26.65;38.89;101157.56;4845481;29;45639;-89
2023/06/29 15:03:27;;;;;;;;;15.75;15.50;;;;;26.65;38.38;101150.41;4835956;29;47018;-88
2023/06/29 15:05:52;;;;;;;;;47.00;37.50;;;;;26.64;38.52;101154.06;4843719;29;45386;-88
2023/06/29 15:08:17;;;;;;;;;45.50;37.75;;;;;26.67;38.78;101155.59;4843850;29;45600;-89
2023/06/29 15:10:43;;;;;;;;;28.75;26.25;;;;;26.51;39.02;101135.75;4845436;29;46693;-87
2023/06/29 15:13:08;;;;;;;;;47.25;39.25;;;;;26.57;38.72;101149.47;4843249;29;46139;-89
2023/06/29 15:34:42;;;;;;;;;23.50;19.00;;;;;26.35;39.36;101147.09;5460887;23;45688;-96
2023/06/29 15:53:13;;;;;;;;;16.33;15.33;;;;;26.22;40.81;101144.75;5589533;23;46567;-95
2023/06/29 17:42:46;;;;;;;;;5.00;4.33;;;;;24.69;46.00;101177.38;4756429;23;46851;-84
2023/06/29 17:45:11;;;;;;;;;6.67;6.67;;;;;24.73;45.94;101190.38;4842042;29;45287;-84
2023/06/29 17:47:37;;;;;;;;;4.00;4.00;;;;;24.73;45.57;101198.34;4828846;29;45455;-84
2023/06/29 17:50:02;;;;;;;;;4.00;4.00;;;;;24.71;45.33;101197.66;4842788;29;45401;-84
2023/06/29 17:52:27;;;;;;;;;4.00;4.00;;;;;24.62;45.27;101184.19;4840647;29;46004;-83
2023/06/29 17:54:53;;;;;;;;;4.33;3.67;;;;;24.60;45.34;101193.28;4840850;29;45368;-84
2023/06/29 17:57:18;;;;;;;;;5.33;5.33;;;;;24.52;45.40;101180.66;4840596;29;45554;-83
2023/06/29 17:59:43;;;;;;;;;6.00;4.67;;;;;24.57;45.15;101190.91;4841609;29;45425;-83
2023/06/29 18:02:09;;;;;;;;;5.67;5.67;;;;;24.54;45.30;101189.38;4841760;29;45421;-85
2023/06/29 18:04:34;;;;;;;;;6.33;5.00;;;;;24.49;45.43;101194.25;4840852;29;45396;-83
2023/06/29 18:07:00;;;;;;;;;9.00;7.67;;;;;24.51;45.41;101201.13;4843245;29;45440;-83
2023/06/29 18:09:25;;;;;;;;;8.00;7.67;;;;;24.41;45.42;101189.59;4846053;29;44848;-96
2023/06/29 18:11:56;;;;;;;;;4.75;3.25;;;;;24.39;45.28;101189.72;4844287;29;45568;-95
2023/06/29 18:14:22;;;;;;;;;8.00;8.00;;;;;24.37;45.27;101191.69;4851302;29;44859;-94
2023/06/29 18:16:47;;;;;;;;;9.75;9.75;;;;;24.38;45.24;101198.69;4849218;29;45463;-95
2023/06/29 18:19:12;;;;;;;;;8.25;8.25;;;;;24.36;45.28;101200.66;4851632;29;45265;-96
2023/06/29 18:21:38;;;;;;;;;10.25;9.50;;;;;24.33;45.59;101202.72;4849775;29;45329;-94
2023/06/29 18:24:04;;;;;;;;;9.33;9.33;;;;;24.29;45.69;101210.13;4852487;29;45444;-86
2023/06/29 18:26:30;;;;;;;;;11.25;11.25;;;;;24.19;45.54;101201.25;4854274;29;45393;-84
2023/06/29 18:28:55;;;;;;;;;11.75;11.25;;;;;24.15;45.62;101204.22;4861509;29;45560;-95
2023/06/29 18:31:23;;;;;;;;;10.00;8.33;;;;;24.12;45.93;101208.97;4873431;28;47127;-95
2023/06/29 18:33:49;;;;;;;;;12.50;11.25;;;;;24.09;46.05;101218.03;4856830;29;45373;-95
2023/06/29 18:36:14;;;;;;;;;14.50;12.50;;;;;24.03;46.21;101214.03;4856727;29;45499;-95
2023/06/29 18:38:40;;;;;;;;;14.00;13.00;;;;;23.96;45.83;101202.25;4855330;29;44982;-95
2023/06/29 18:41:25;;;;;;;;;13.75;13.75;;;;;23.80;46.19;101186.81;4856476;29;45189;-95
2023/06/29 18:43:52;;;;;;;;;13.50;12.25;;;;;23.74;46.44;101182.00;4857030;29;44894;-95
2023/06/29 18:46:17;;;;;;;;;12.75;12.75;;;;;23.73;46.32;101180.31;4851935;29;45808;-96
2023/06/29 18:48:52;;;;;;;;;11.75;11.75;;;;;23.73;46.33;101180.31;4849340;29;45431;-86
2023/06/29 18:51:28;;;;;;;;;11.25;11.25;;;;;23.85;46.49;101203.19;4844971;29;46561;-95
2023/06/29 18:53:54;;;;;;;;;10.75;10.75;;;;;23.93;46.78;101214.97;4841885;29;45354;-84
2023/06/29 18:56:20;;;;;;;;;11.25;11.25;;;;;23.90;46.30;101216.09;4844847;29;45789;-84
2023/06/29 18:58:46;;;;;;;;;12.00;11.00;;;;;23.89;46.51;101214.41;4844319;29;45590;-83
2023/06/29 19:01:12;;;;;;;;;13.00;13.00;;;;;23.87;46.70;101214.53;4841999;29;46931;-83
2023/06/29 19:03:38;;;;;;;;;11.33;11.33;;;;;23.86;46.95;101223.47;4842192;29;45494;-83
2023/06/29 19:06:03;;;;;;;;;14.75;14.00;;;;;23.84;46.77;101220.09;4843287;29;45650;-84
2023/06/29 19:08:29;;;;;;;;;11.25;10.00;;;;;23.78;46.62;101214.47;4845678;29;45538;-84
2023/06/29 19:10:55;;;;;;;;;10.33;9.33;;;;;23.81;46.95;101219.53;4843406;29;45539;-83
2023/06/29 19:13:21;;;;;;;;;9.67;8.67;;;;;23.71;47.10;101207.03;4852736;29;45472;-83
2023/06/29 19:15:47;;;;;;;;;11.00;9.33;;;;;23.70;46.91;101204.50;4843825;29;45368;-85
2023/06/29 19:18:22;;;;;;;;;9.00;9.00;;;;;23.72;47.41;101221.16;4845638;29;45689;-86
2023/06/29 19:20:51;;;;;;;;;8.67;8.67;;;;;23.60;46.88;101202.63;4847330;29;45320;-85
2023/06/29 19:23:16;;;;;;;;;10.33;10.00;;;;;23.68;47.03;101217.06;4843907;29;45707;-85
2023/06/29 19:25:41;;;;;;;;;9.33;9.00;;;;;23.68;47.40;101222.38;4845947;29;45545;-86
2023/06/29 19:28:07;;;;;;;;;8.67;8.00;;;;;23.57;47.13;101217.97;4841529;29;45422;-86
2023/06/29 19:30:32;;;;;;;;;11.33;11.33;;;;;23.44;47.24;101199.56;4842136;29;45578;-85
2023/06/29 19:32:58;;;;;;;;;7.67;6.67;;;;;23.52;47.58;101217.53;4824274;29;45861;-84
2023/06/29 19:35:24;;;;;;;;;9.67;9.67;;;;;23.55;47.52;101222.59;4843611;29;45381;-83
